sensor_id;sensor_type;location;lat;lon;timestamp;temperature;humidity
9987;DHT22;5033;46.310;11.214;2023-08-01T00:01:29;24.00;99.90
9987;DHT22;5033;46.310;11.214;2023-08-01T00:03:56;24.00;99.90
9987;DHT22;5033;46.310;11.214;2023-08-01T00:06:23;24.00;99.90
9987;DHT22;5033;46.310;11.214;2023-08-01T00:08:50;24.00;99.90
9987;DHT22;5033;46.310;11.214;2023-08-01T00:11:17;24.00;99.90
9987;DHT22;5033;46.310;11.214;2023-08-01T00:13:45;24.00;99.90
9987;DHT22;5033;46.310;11.214;2023-08-01T00:16:12;24.00;99.90
9987;DHT22;5033;46.310;11.214;2023-08-01T00:18:39;24.00;99.90
9987;DHT22;5033;46.310;11.214;2023-08-01T00:21:06;24.00;99.90
9987;DHT22;5033;46.310;11.214;2023-08-01T00:23:35;24.00;99.90
9987;DHT22;5033;46.310;11.214;2023-08-01T00:26:02;24.00;99.90
9987;DHT22;5033;46.310;11.214;2023-08-01T00:28:29;24.00;99.90
9987;DHT22;5033;46.310;11.214;2023-08-01T00:31:05;23.90;99.90
9987;DHT22;5033;46.310;11.214;2023-08-01T00:33:32;23.90;99.90
9987;DHT22;5033;46.310;11.214;2023-08-01T00:35:59;23.90;99.90
9987;DHT22;5033;46.310;11.214;2023-08-01T00:38:26;23.80;99.90
9987;DHT22;5033;46.310;11.214;2023-08-01T00:40:53;23.90;99.90
9987;DHT22;5033;46.310;11.214;2023-08-01T00:43:20;23.90;99.90
9987;DHT22;5033;46.310;11.214;2023-08-01T00:45:47;23.80;99.90
9987;DHT22;5033;46.310;11.214;2023-08-01T00:48:16;23.80;99.90
9987;DHT22;5033;46.310;11.214;2023-08-01T00:50:44;23.80;99.90
9987;DHT22;5033;46.310;11.214;2023-08-01T00:53:12;23.80;99.90
9987;DHT22;5033;46.310;11.214;2023-08-01T00:55:39;23.80;99.90
9987;DHT22;5033;46.310;11.214;2023-08-01T00:58:06;23.70;99.90
9987;DHT22;5033;46.310;11.214;2023-08-01T01:00:33;23.70;99.90
9987;DHT22;5033;46.310;11.214;2023-08-01T01:03:00;23.70;99.90
9987;DHT22;5033;46.310;11.214;2023-08-01T01:05:32;23.70;99.90
9987;DHT22;5033;46.310;11.214;2023-08-01T01:08:02;23.70;99.90
9987;DHT22;5033;46.310;11.214;2023-08-01T01:10:29;23.70;99.90
9987;DHT22;5033;46.310;11.214;2023-08-01T01:12:56;23.70;99.90
9987;DHT22;5033;46.310;11.214;2023-08-01T01:15:23;23.70;99.90
9987;DHT22;5033;46.310;11.214;2023-08-01T01:17:50;23.70;99.90
9987;DHT22;5033;46.310;11.214;2023-08-01T01:20:22;23.70;99.90
9987;DHT22;5033;46.310;11.214;2023-08-01T01:22:51;23.70;99.90
9987;DHT22;5033;46.310;11.214;2023-08-01T01:25:20;23.70;99.90
9987;DHT22;5033;46.310;11.214;2023-08-01T01:27:49;23.70;99.90
9987;DHT22;5033;46.310;11.214;2023-08-01T01:30:18;23.70;99.90
9987;DHT22;5033;46.310;11.214;2023-08-01T01:32:45;23.70;99.90
9987;DHT22;5033;46.310;11.214;2023-08-01T01:35:12;23.70;99.90
9987;DHT22;5033;46.310;11.214;2023-08-01T01:37:39;23.70;99.90
9987;DHT22;5033;46.310;11.214;2023-08-01T01:40:09;23.70;99.90
9987;DHT22;5033;46.310;11.214;2023-08-01T01:42:37;23.80;99.90
9987;DHT22;5033;46.310;11.214;2023-08-01T01:45:05;23.80;99.90
9987;DHT22;5033;46.310;11.214;2023-08-01T01:47:32;23.80;99.90
9987;DHT22;5033;46.310;11.214;2023-08-01T01:49:59;23.80;99.90
9987;DHT22;5033;46.310;11.214;2023-08-01T01:52:26;23.90;99.90
9987;DHT22;5033;46.310;11.214;2023-08-01T01:54:52;23.80;99.90
9987;DHT22;5033;46.310;11.214;2023-08-01T01:57:21;23.80;99.90
9987;DHT22;5033;46.310;11.214;2023-08-01T01:59:48;23.80;99.90
9987;DHT22;5033;46.310;11.214;2023-08-01T02:02:15;23.80;99.90
9987;DHT22;5033;46.310;11.214;2023-08-01T02:04:41;23.80;99.90
9987;DHT22;5033;46.310;11.214;2023-08-01T02:07:08;23.80;99.90
9987;DHT22;5033;46.310;11.214;2023-08-01T02:09:35;23.80;99.90
9987;DHT22;5033;46.310;11.214;2023-08-01T02:12:02;23.80;99.90
9987;DHT22;5033;46.310;11.214;2023-08-01T02:14:31;23.80;99.90
9987;DHT22;5033;46.310;11.214;2023-08-01T02:16:58;23.80;99.90
9987;DHT22;5033;46.310;11.214;2023-08-01T02:19:25;23.70;99.90
9987;DHT22;5033;46.310;11.214;2023-08-01T02:21:53;23.70;99.90
9987;DHT22;5033;46.310;11.214;2023-08-01T02:24:20;23.70;99.90
9987;DHT22;5033;46.310;11.214;2023-08-01T02:26:47;23.70;99.90
9987;DHT22;5033;46.310;11.214;2023-08-01T02:29:14;23.70;99.90
9987;DHT22;5033;46.310;11.214;2023-08-01T02:31:42;23.70;99.90
9987;DHT22;5033;46.310;11.214;2023-08-01T02:34:09;23.60;99.90
9987;DHT22;5033;46.310;11.214;2023-08-01T02:36:36;23.60;99.90
9987;DHT22;5033;46.310;11.214;2023-08-01T02:39:05;23.60;99.90
9987;DHT22;5033;46.310;11.214;2023-08-01T02:41:33;23.60;99.90
9987;DHT22;5033;46.310;11.214;2023-08-01T02:43:59;23.60;99.90
9987;DHT22;5033;46.310;11.214;2023-08-01T02:46:26;23.60;99.90
9987;DHT22;5033;46.310;11.214;2023-08-01T02:48:56;23.60;99.90
9987;DHT22;5033;46.310;11.214;2023-08-01T02:51:23;23.60;99.90
9987;DHT22;5033;46.310;11.214;2023-08-01T02:53:50;23.40;99.90
9987;DHT22;5033;46.310;11.214;2023-08-01T02:56:17;23.30;99.90
9987;DHT22;5033;46.310;11.214;2023-08-01T02:58:44;23.20;99.90
9987;DHT22;5033;46.310;11.214;2023-08-01T03:01:11;23.00;99.90
9987;DHT22;5033;46.310;11.214;2023-08-01T03:03:39;22.90;99.90
9987;DHT22;5033;46.310;11.214;2023-08-01T03:06:08;22.70;99.90
9987;DHT22;5033;46.310;11.214;2023-08-01T03:08:35;22.70;99.90
9987;DHT22;5033;46.310;11.214;2023-08-01T03:11:02;22.70;99.90
9987;DHT22;5033;46.310;11.214;2023-08-01T03:13:29;22.70;99.90
9987;DHT22;5033;46.310;11.214;2023-08-01T03:15:56;22.70;99.90
9987;DHT22;5033;46.310;11.214;2023-08-01T03:18:23;22.80;99.90
9987;DHT22;5033;46.310;11.214;2023-08-01T03:20:50;22.70;99.90
9987;DHT22;5033;46.310;11.214;2023-08-01T03:23:18;22.70;99.90
9987;DHT22;5033;46.310;11.214;2023-08-01T03:25:45;22.70;99.90
9987;DHT22;5033;46.310;11.214;2023-08-01T03:28:12;22.70;99.90
9987;DHT22;5033;46.310;11.214;2023-08-01T03:30:39;22.60;99.90
9987;DHT22;5033;46.310;11.214;2023-08-01T03:33:06;22.60;99.90
9987;DHT22;5033;46.310;11.214;2023-08-01T03:35:33;22.60;99.90
9987;DHT22;5033;46.310;11.214;2023-08-01T03:38:00;22.50;99.90
9987;DHT22;5033;46.310;11.214;2023-08-01T03:40:28;22.50;99.90
9987;DHT22;5033;46.310;11.214;2023-08-01T03:42:55;22.50;99.90
9987;DHT22;5033;46.310;11.214;2023-08-01T03:45:22;22.40;99.90
9987;DHT22;5033;46.310;11.214;2023-08-01T03:47:49;22.30;99.90
9987;DHT22;5033;46.310;11.214;2023-08-01T03:50:17;22.20;99.90
9987;DHT22;5033;46.310;11.214;2023-08-01T03:52:44;22.10;99.90
9987;DHT22;5033;46.310;11.214;2023-08-01T03:55:11;22.00;99.90
9987;DHT22;5033;46.310;11.214;2023-08-01T03:57:39;22.00;99.90
9987;DHT22;5033;46.310;11.214;2023-08-01T04:00:07;21.90;99.90
9987;DHT22;5033;46.310;11.214;2023-08-01T04:02:39;21.90;99.90
9987;DHT22;5033;46.310;11.214;2023-08-01T04:05:07;21.90;99.90
9987;DHT22;5033;46.310;11.214;2023-08-01T04:07:34;22.00;99.90
9987;DHT22;5033;46.310;11.214;2023-08-01T04:10:01;22.00;99.90
9987;DHT22;5033;46.310;11.214;2023-08-01T04:12:29;22.00;99.90
9987;DHT22;5033;46.310;11.214;2023-08-01T04:14:57;22.10;99.90
9987;DHT22;5033;46.310;11.214;2023-08-01T04:17:24;22.10;99.90
9987;DHT22;5033;46.310;11.214;2023-08-01T04:19:51;22.10;99.90
9987;DHT22;5033;46.310;11.214;2023-08-01T04:22:18;22.10;99.90
9987;DHT22;5033;46.310;11.214;2023-08-01T04:24:45;22.20;99.90
9987;DHT22;5033;46.310;11.214;2023-08-01T04:27:12;22.10;99.90
9987;DHT22;5033;46.310;11.214;2023-08-01T04:29:39;22.00;99.90
9987;DHT22;5033;46.310;11.214;2023-08-01T04:32:08;21.80;99.90
9987;DHT22;5033;46.310;11.214;2023-08-01T04:34:38;21.60;99.90
9987;DHT22;5033;46.310;11.214;2023-08-01T04:37:05;21.50;99.90
9987;DHT22;5033;46.310;11.214;2023-08-01T04:39:32;21.50;99.90
9987;DHT22;5033;46.310;11.214;2023-08-01T04:41:59;21.40;99.90
9987;DHT22;5033;46.310;11.214;2023-08-01T04:44:26;21.50;99.90
9987;DHT22;5033;46.310;11.214;2023-08-01T04:46:53;21.40;99.90
9987;DHT22;5033;46.310;11.214;2023-08-01T04:49:21;21.40;99.90
9987;DHT22;5033;46.310;11.214;2023-08-01T04:51:50;21.40;99.90
9987;DHT22;5033;46.310;11.214;2023-08-01T04:54:17;21.40;99.90
9987;DHT22;5033;46.310;11.214;2023-08-01T04:56:44;21.50;99.90
9987;DHT22;5033;46.310;11.214;2023-08-01T04:59:11;21.50;99.90
9987;DHT22;5033;46.310;11.214;2023-08-01T05:01:38;21.50;99.90
9987;DHT22;5033;46.310;11.214;2023-08-01T05:04:05;21.60;99.90
9987;DHT22;5033;46.310;11.214;2023-08-01T05:06:33;21.60;99.90
9987;DHT22;5033;46.310;11.214;2023-08-01T05:09:00;21.70;99.90
9987;DHT22;5033;46.310;11.214;2023-08-01T05:11:27;21.70;99.90
9987;DHT22;5033;46.310;11.214;2023-08-01T05:13:54;21.70;99.90
9987;DHT22;5033;46.310;11.214;2023-08-01T05:16:21;21.80;99.90
9987;DHT22;5033;46.310;11.214;2023-08-01T05:18:48;21.80;99.90
9987;DHT22;5033;46.310;11.214;2023-08-01T05:21:15;21.80;99.90
9987;DHT22;5033;46.310;11.214;2023-08-01T05:23:43;21.90;99.90
9987;DHT22;5033;46.310;11.214;2023-08-01T05:26:10;21.80;99.90
9987;DHT22;5033;46.310;11.214;2023-08-01T05:28:37;21.80;99.90
9987;DHT22;5033;46.310;11.214;2023-08-01T05:31:04;21.80;99.90
9987;DHT22;5033;46.310;11.214;2023-08-01T05:33:31;21.80;99.90
9987;DHT22;5033;46.310;11.214;2023-08-01T05:35:58;21.80;99.90
9987;DHT22;5033;46.310;11.214;2023-08-01T05:38:25;21.80;99.90
9987;DHT22;5033;46.310;11.214;2023-08-01T05:40:53;21.80;99.90
9987;DHT22;5033;46.310;11.214;2023-08-01T05:43:20;21.80;99.90
9987;DHT22;5033;46.310;11.214;2023-08-01T05:45:47;21.80;99.90
9987;DHT22;5033;46.310;11.214;2023-08-01T05:48:14;21.80;99.90
9987;DHT22;5033;46.310;11.214;2023-08-01T05:50:41;21.80;99.90
9987;DHT22;5033;46.310;11.214;2023-08-01T05:53:07;21.80;99.90
9987;DHT22;5033;46.310;11.214;2023-08-01T05:55:34;21.70;99.90
9987;DHT22;5033;46.310;11.214;2023-08-01T05:58:03;21.70;99.90
9987;DHT22;5033;46.310;11.214;2023-08-01T06:00:30;21.70;99.90
9987;DHT22;5033;46.310;11.214;2023-08-01T06:02:57;21.70;99.90
9987;DHT22;5033;46.310;11.214;2023-08-01T06:05:24;21.70;99.90
9987;DHT22;5033;46.310;11.214;2023-08-01T06:07:51;21.70;99.90
9987;DHT22;5033;46.310;11.214;2023-08-01T06:10:17;21.70;99.90
9987;DHT22;5033;46.310;11.214;2023-08-01T06:12:44;21.60;99.90
9987;DHT22;5033;46.310;11.214;2023-08-01T06:15:13;21.60;99.90
9987;DHT22;5033;46.310;11.214;2023-08-01T06:17:40;21.60;99.90
9987;DHT22;5033;46.310;11.214;2023-08-01T06:20:08;21.60;99.90
9987;DHT22;5033;46.310;11.214;2023-08-01T06:22:35;21.60;99.90
9987;DHT22;5033;46.310;11.214;2023-08-01T06:25:03;21.50;99.90
9987;DHT22;5033;46.310;11.214;2023-08-01T06:27:30;21.50;99.90
9987;DHT22;5033;46.310;11.214;2023-08-01T06:29:56;21.40;99.90
9987;DHT22;5033;46.310;11.214;2023-08-01T06:32:25;21.40;99.90
9987;DHT22;5033;46.310;11.214;2023-08-01T06:34:52;21.50;99.90
9987;DHT22;5033;46.310;11.214;2023-08-01T06:37:19;21.50;99.90
9987;DHT22;5033;46.310;11.214;2023-08-01T06:39:46;21.50;99.90
9987;DHT22;5033;46.310;11.214;2023-08-01T06:42:13;21.60;99.90
9987;DHT22;5033;46.310;11.214;2023-08-01T06:44:41;21.60;99.90
9987;DHT22;5033;46.310;11.214;2023-08-01T06:47:08;21.50;99.90
9987;DHT22;5033;46.310;11.214;2023-08-01T06:49:36;21.50;99.90
9987;DHT22;5033;46.310;11.214;2023-08-01T06:52:04;21.40;99.90
9987;DHT22;5033;46.310;11.214;2023-08-01T06:54:32;21.30;99.90
9987;DHT22;5033;46.310;11.214;2023-08-01T06:56:59;21.30;99.90
9987;DHT22;5033;46.310;11.214;2023-08-01T06:59:26;21.40;99.90
9987;DHT22;5033;46.310;11.214;2023-08-01T07:01:53;21.50;99.90
9987;DHT22;5033;46.310;11.214;2023-08-01T07:04:20;21.60;99.90
9987;DHT22;5033;46.310;11.214;2023-08-01T07:06:48;21.70;99.90
9987;DHT22;5033;46.310;11.214;2023-08-01T07:09:15;21.80;99.90
9987;DHT22;5033;46.310;11.214;2023-08-01T07:11:42;21.90;99.90
9987;DHT22;5033;46.310;11.214;2023-08-01T07:14:09;21.90;99.90
9987;DHT22;5033;46.310;11.214;2023-08-01T07:16:36;21.90;99.90
9987;DHT22;5033;46.310;11.214;2023-08-01T07:19:03;21.80;99.90
9987;DHT22;5033;46.310;11.214;2023-08-01T07:21:30;21.90;99.90
9987;DHT22;5033;46.310;11.214;2023-08-01T07:23:58;21.80;99.90
9987;DHT22;5033;46.310;11.214;2023-08-01T07:26:25;21.80;99.90
9987;DHT22;5033;46.310;11.214;2023-08-01T07:28:54;21.70;99.90
9987;DHT22;5033;46.310;11.214;2023-08-01T07:31:21;21.60;99.90
9987;DHT22;5033;46.310;11.214;2023-08-01T07:33:48;21.60;99.90
9987;DHT22;5033;46.310;11.214;2023-08-01T07:36:14;21.60;99.90
9987;DHT22;5033;46.310;11.214;2023-08-01T07:38:41;21.70;99.90
9987;DHT22;5033;46.310;11.214;2023-08-01T07:41:10;21.80;99.90
9987;DHT22;5033;46.310;11.214;2023-08-01T07:43:36;22.00;99.90
9987;DHT22;5033;46.310;11.214;2023-08-01T07:46:03;22.20;99.90
9987;DHT22;5033;46.310;11.214;2023-08-01T07:48:30;22.20;99.90
9987;DHT22;5033;46.310;11.214;2023-08-01T07:50:58;22.10;99.90
9987;DHT22;5033;46.310;11.214;2023-08-01T07:53:24;22.10;99.90
9987;DHT22;5033;46.310;11.214;2023-08-01T07:55:52;22.30;99.90
9987;DHT22;5033;46.310;11.214;2023-08-01T07:58:20;22.60;99.90
9987;DHT22;5033;46.310;11.214;2023-08-01T08:00:47;22.80;99.90
9987;DHT22;5033;46.310;11.214;2023-08-01T08:03:14;22.90;99.90
9987;DHT22;5033;46.310;11.214;2023-08-01T08:05:41;22.90;99.90
9987;DHT22;5033;46.310;11.214;2023-08-01T08:08:08;23.00;99.90
9987;DHT22;5033;46.310;11.214;2023-08-01T08:10:35;23.00;99.90
9987;DHT22;5033;46.310;11.214;2023-08-01T08:13:02;23.00;99.90
9987;DHT22;5033;46.310;11.214;2023-08-01T08:15:30;23.00;99.90
9987;DHT22;5033;46.310;11.214;2023-08-01T08:18:00;23.00;99.90
9987;DHT22;5033;46.310;11.214;2023-08-01T08:20:29;23.10;99.90
9987;DHT22;5033;46.310;11.214;2023-08-01T08:22:56;23.20;99.90
9987;DHT22;5033;46.310;11.214;2023-08-01T08:25:23;23.20;99.90
9987;DHT22;5033;46.310;11.214;2023-08-01T08:27:50;23.20;99.90
9987;DHT22;5033;46.310;11.214;2023-08-01T08:30:17;23.20;99.90
9987;DHT22;5033;46.310;11.214;2023-08-01T08:32:45;23.20;99.90
9987;DHT22;5033;46.310;11.214;2023-08-01T08:35:12;23.20;99.90
9987;DHT22;5033;46.310;11.214;2023-08-01T08:37:39;23.10;99.90
9987;DHT22;5033;46.310;11.214;2023-08-01T08:40:07;23.10;99.90
9987;DHT22;5033;46.310;11.214;2023-08-01T08:42:34;23.00;99.90
9987;DHT22;5033;46.310;11.214;2023-08-01T08:45:02;23.00;99.90
9987;DHT22;5033;46.310;11.214;2023-08-01T08:47:31;22.90;99.90
9987;DHT22;5033;46.310;11.214;2023-08-01T08:50:05;22.90;99.90
9987;DHT22;5033;46.310;11.214;2023-08-01T08:52:32;23.00;99.90
9987;DHT22;5033;46.310;11.214;2023-08-01T08:55:01;23.00;99.90
9987;DHT22;5033;46.310;11.214;2023-08-01T08:57:30;23.00;99.90
9987;DHT22;5033;46.310;11.214;2023-08-01T08:59:58;23.00;99.90
9987;DHT22;5033;46.310;11.214;2023-08-01T09:02:26;23.10;99.90
9987;DHT22;5033;46.310;11.214;2023-08-01T09:04:53;23.00;99.90
9987;DHT22;5033;46.310;11.214;2023-08-01T09:07:24;23.10;99.90
9987;DHT22;5033;46.310;11.214;2023-08-01T09:09:55;23.40;99.90
9987;DHT22;5033;46.310;11.214;2023-08-01T09:12:22;23.60;99.90
9987;DHT22;5033;46.310;11.214;2023-08-01T09:14:50;23.80;99.90
9987;DHT22;5033;46.310;11.214;2023-08-01T09:17:17;24.10;99.90
9987;DHT22;5033;46.310;11.214;2023-08-01T09:19:44;24.40;99.90
9987;DHT22;5033;46.310;11.214;2023-08-01T09:22:12;24.50;99.90
9987;DHT22;5033;46.310;11.214;2023-08-01T09:24:51;24.70;99.90
9987;DHT22;5033;46.310;11.214;2023-08-01T09:27:18;24.70;99.90
9987;DHT22;5033;46.310;11.214;2023-08-01T09:29:46;24.50;99.90
9987;DHT22;5033;46.310;11.214;2023-08-01T09:32:14;24.50;99.90
9987;DHT22;5033;46.310;11.214;2023-08-01T09:34:42;24.70;99.90
9987;DHT22;5033;46.310;11.214;2023-08-01T09:37:09;25.20;99.90
9987;DHT22;5033;46.310;11.214;2023-08-01T09:39:36;25.20;99.90
9987;DHT22;5033;46.310;11.214;2023-08-01T09:42:05;24.80;99.90
9987;DHT22;5033;46.310;11.214;2023-08-01T09:44:35;24.70;99.90
9987;DHT22;5033;46.310;11.214;2023-08-01T09:47:04;24.50;99.90
9987;DHT22;5033;46.310;11.214;2023-08-01T09:49:32;24.50;99.90
9987;DHT22;5033;46.310;11.214;2023-08-01T09:51:59;24.50;99.90
9987;DHT22;5033;46.310;11.214;2023-08-01T09:54:27;24.70;99.90
9987;DHT22;5033;46.310;11.214;2023-08-01T09:56:54;24.70;99.90
9987;DHT22;5033;46.310;11.214;2023-08-01T09:59:23;24.60;99.90
9987;DHT22;5033;46.310;11.214;2023-08-01T10:01:52;24.60;99.90
9987;DHT22;5033;46.310;11.214;2023-08-01T10:04:21;24.70;99.90
9987;DHT22;5033;46.310;11.214;2023-08-01T10:06:53;24.70;99.90
9987;DHT22;5033;46.310;11.214;2023-08-01T10:09:21;24.70;99.90
9987;DHT22;5033;46.310;11.214;2023-08-01T10:11:49;24.60;99.90
9987;DHT22;5033;46.310;11.214;2023-08-01T10:14:18;24.60;99.90
9987;DHT22;5033;46.310;11.214;2023-08-01T10:16:47;24.50;99.90
9987;DHT22;5033;46.310;11.214;2023-08-01T10:19:15;24.40;99.90
9987;DHT22;5033;46.310;11.214;2023-08-01T10:21:44;24.40;99.90
9987;DHT22;5033;46.310;11.214;2023-08-01T10:24:11;24.40;99.90
9987;DHT22;5033;46.310;11.214;2023-08-01T10:26:39;24.50;99.90
9987;DHT22;5033;46.310;11.214;2023-08-01T10:29:06;24.60;99.90
9987;DHT22;5033;46.310;11.214;2023-08-01T10:31:33;24.50;99.90
9987;DHT22;5033;46.310;11.214;2023-08-01T10:34:06;24.70;99.90
9987;DHT22;5033;46.310;11.214;2023-08-01T10:36:33;24.90;99.90
9987;DHT22;5033;46.310;11.214;2023-08-01T10:39:01;25.20;99.90
9987;DHT22;5033;46.310;11.214;2023-08-01T10:41:30;25.60;99.90
9987;DHT22;5033;46.310;11.214;2023-08-01T10:44:08;25.80;99.90
9987;DHT22;5033;46.310;11.214;2023-08-01T10:46:48;26.10;99.90
9987;DHT22;5033;46.310;11.214;2023-08-01T10:49:18;26.10;99.90
9987;DHT22;5033;46.310;11.214;2023-08-01T10:51:46;26.00;99.90
9987;DHT22;5033;46.310;11.214;2023-08-01T10:54:19;25.80;99.90
9987;DHT22;5033;46.310;11.214;2023-08-01T10:56:48;25.70;99.90
9987;DHT22;5033;46.310;11.214;2023-08-01T10:59:15;25.70;99.90
9987;DHT22;5033;46.310;11.214;2023-08-01T11:01:47;25.70;99.90
9987;DHT22;5033;46.310;11.214;2023-08-01T11:04:16;25.80;99.90
9987;DHT22;5033;46.310;11.214;2023-08-01T11:06:45;25.80;99.90
9987;DHT22;5033;46.310;11.214;2023-08-01T11:09:17;26.00;99.90
9987;DHT22;5033;46.310;11.214;2023-08-01T11:11:45;26.20;99.90
9987;DHT22;5033;46.310;11.214;2023-08-01T11:14:12;26.20;99.90
9987;DHT22;5033;46.310;11.214;2023-08-01T11:16:40;26.20;99.90
9987;DHT22;5033;46.310;11.214;2023-08-01T11:19:19;26.20;99.90
9987;DHT22;5033;46.310;11.214;2023-08-01T11:21:46;26.40;99.90
9987;DHT22;5033;46.310;11.214;2023-08-01T11:24:13;26.40;99.90
9987;DHT22;5033;46.310;11.214;2023-08-01T11:26:42;26.40;99.90
9987;DHT22;5033;46.310;11.214;2023-08-01T11:29:09;26.50;99.90
9987;DHT22;5033;46.310;11.214;2023-08-01T11:31:36;26.40;99.90
9987;DHT22;5033;46.310;11.214;2023-08-01T11:34:03;26.40;99.90
9987;DHT22;5033;46.310;11.214;2023-08-01T11:36:32;26.40;99.90
9987;DHT22;5033;46.310;11.214;2023-08-01T11:39:00;26.20;99.90
9987;DHT22;5033;46.310;11.214;2023-08-01T11:41:28;26.30;99.90
9987;DHT22;5033;46.310;11.214;2023-08-01T11:43:55;26.40;99.90
9987;DHT22;5033;46.310;11.214;2023-08-01T11:46:31;26.30;99.90
9987;DHT22;5033;46.310;11.214;2023-08-01T11:48:59;26.30;99.90
9987;DHT22;5033;46.310;11.214;2023-08-01T11:51:26;26.30;99.90
9987;DHT22;5033;46.310;11.214;2023-08-01T11:54:04;26.30;99.90
9987;DHT22;5033;46.310;11.214;2023-08-01T11:56:33;26.60;99.90
9987;DHT22;5033;46.310;11.214;2023-08-01T11:59:08;27.20;99.90
9987;DHT22;5033;46.310;11.214;2023-08-01T12:01:38;27.60;99.90
9987;DHT22;5033;46.310;11.214;2023-08-01T12:04:05;27.70;99.90
9987;DHT22;5033;46.310;11.214;2023-08-01T12:06:33;27.50;99.90
9987;DHT22;5033;46.310;11.214;2023-08-01T12:09:08;27.50;99.90
9987;DHT22;5033;46.310;11.214;2023-08-01T12:11:35;27.70;99.90
9987;DHT22;5033;46.310;11.214;2023-08-01T12:14:04;27.80;99.90
9987;DHT22;5033;46.310;11.214;2023-08-01T12:16:31;27.80;99.90
9987;DHT22;5033;46.310;11.214;2023-08-01T12:18:58;27.50;99.90
9987;DHT22;5033;46.310;11.214;2023-08-01T12:21:25;27.50;99.90
9987;DHT22;5033;46.310;11.214;2023-08-01T12:23:52;27.50;99.90
9987;DHT22;5033;46.310;11.214;2023-08-01T12:26:20;27.40;99.90
9987;DHT22;5033;46.310;11.214;2023-08-01T12:28:47;27.40;99.90
9987;DHT22;5033;46.310;11.214;2023-08-01T12:31:16;27.30;99.90
9987;DHT22;5033;46.310;11.214;2023-08-01T12:33:44;27.40;99.90
9987;DHT22;5033;46.310;11.214;2023-08-01T12:36:11;27.10;99.90
9987;DHT22;5033;46.310;11.214;2023-08-01T12:38:38;27.00;99.90
9987;DHT22;5033;46.310;11.214;2023-08-01T12:41:05;27.10;99.90
9987;DHT22;5033;46.310;11.214;2023-08-01T12:43:33;27.40;99.90
9987;DHT22;5033;46.310;11.214;2023-08-01T12:46:00;27.70;99.90
9987;DHT22;5033;46.310;11.214;2023-08-01T12:48:28;28.00;99.90
9987;DHT22;5033;46.310;11.214;2023-08-01T12:50:55;28.10;99.90
9987;DHT22;5033;46.310;11.214;2023-08-01T12:53:22;28.30;99.90
9987;DHT22;5033;46.310;11.214;2023-08-01T12:55:50;28.40;99.90
9987;DHT22;5033;46.310;11.214;2023-08-01T12:58:18;28.20;99.90
9987;DHT22;5033;46.310;11.214;2023-08-01T13:00:46;28.20;99.90
9987;DHT22;5033;46.310;11.214;2023-08-01T13:03:13;28.40;99.90
9987;DHT22;5033;46.310;11.214;2023-08-01T13:05:42;28.50;99.90
9987;DHT22;5033;46.310;11.214;2023-08-01T13:08:09;28.40;99.90
9987;DHT22;5033;46.310;11.214;2023-08-01T13:10:38;28.50;99.90
9987;DHT22;5033;46.310;11.214;2023-08-01T13:13:05;28.60;99.90
9987;DHT22;5033;46.310;11.214;2023-08-01T13:15:32;28.50;99.90
9987;DHT22;5033;46.310;11.214;2023-08-01T13:18:00;28.50;99.90
9987;DHT22;5033;46.310;11.214;2023-08-01T13:20:27;28.40;99.90
9987;DHT22;5033;46.310;11.214;2023-08-01T13:22:54;28.20;99.90
9987;DHT22;5033;46.310;11.214;2023-08-01T13:25:21;28.30;99.90
9987;DHT22;5033;46.310;11.214;2023-08-01T13:27:48;28.20;99.90
9987;DHT22;5033;46.310;11.214;2023-08-01T13:30:15;28.10;99.90
9987;DHT22;5033;46.310;11.214;2023-08-01T13:32:44;27.70;99.90
9987;DHT22;5033;46.310;11.214;2023-08-01T13:35:13;27.50;99.90
9987;DHT22;5033;46.310;11.214;2023-08-01T13:37:40;27.60;99.90
9987;DHT22;5033;46.310;11.214;2023-08-01T13:40:08;27.80;99.90
9987;DHT22;5033;46.310;11.214;2023-08-01T13:42:37;28.00;99.90
9987;DHT22;5033;46.310;11.214;2023-08-01T13:45:05;28.20;99.90
9987;DHT22;5033;46.310;11.214;2023-08-01T13:47:32;28.30;99.90
9987;DHT22;5033;46.310;11.214;2023-08-01T13:49:59;27.90;99.90
9987;DHT22;5033;46.310;11.214;2023-08-01T13:52:27;27.50;99.90
9987;DHT22;5033;46.310;11.214;2023-08-01T13:54:54;27.50;99.90
9987;DHT22;5033;46.310;11.214;2023-08-01T13:57:21;27.70;99.90
9987;DHT22;5033;46.310;11.214;2023-08-01T13:59:49;27.40;99.90
9987;DHT22;5033;46.310;11.214;2023-08-01T14:02:16;27.00;99.90
9987;DHT22;5033;46.310;11.214;2023-08-01T14:04:43;26.60;99.90
9987;DHT22;5033;46.310;11.214;2023-08-01T14:07:10;26.30;99.90
9987;DHT22;5033;46.310;11.214;2023-08-01T14:09:38;26.10;99.90
9987;DHT22;5033;46.310;11.214;2023-08-01T14:12:06;26.10;99.90
9987;DHT22;5033;46.310;11.214;2023-08-01T14:14:33;26.00;99.90
9987;DHT22;5033;46.310;11.214;2023-08-01T14:17:00;25.90;99.90
9987;DHT22;5033;46.310;11.214;2023-08-01T14:19:27;25.90;99.90
9987;DHT22;5033;46.310;11.214;2023-08-01T14:21:55;26.20;99.90
9987;DHT22;5033;46.310;11.214;2023-08-01T14:24:23;26.20;99.90
9987;DHT22;5033;46.310;11.214;2023-08-01T14:26:51;26.00;99.90
9987;DHT22;5033;46.310;11.214;2023-08-01T14:29:18;25.80;99.90
9987;DHT22;5033;46.310;11.214;2023-08-01T14:31:48;25.70;99.90
9987;DHT22;5033;46.310;11.214;2023-08-01T14:34:15;25.50;99.90
9987;DHT22;5033;46.310;11.214;2023-08-01T14:36:42;25.40;99.90
9987;DHT22;5033;46.310;11.214;2023-08-01T14:39:09;25.00;99.90
9987;DHT22;5033;46.310;11.214;2023-08-01T14:41:36;24.40;99.90
9987;DHT22;5033;46.310;11.214;2023-08-01T14:44:04;24.00;99.90
9987;DHT22;5033;46.310;11.214;2023-08-01T14:46:31;24.00;99.90
9987;DHT22;5033;46.310;11.214;2023-08-01T14:48:58;24.30;99.90
9987;DHT22;5033;46.310;11.214;2023-08-01T14:51:25;24.50;99.90
9987;DHT22;5033;46.310;11.214;2023-08-01T14:53:52;24.80;99.90
9987;DHT22;5033;46.310;11.214;2023-08-01T14:56:19;24.50;99.90
9987;DHT22;5033;46.310;11.214;2023-08-01T14:58:46;24.50;99.90
9987;DHT22;5033;46.310;11.214;2023-08-01T15:01:15;24.20;99.90
9987;DHT22;5033;46.310;11.214;2023-08-01T15:03:43;23.90;99.90
9987;DHT22;5033;46.310;11.214;2023-08-01T15:06:10;23.20;99.90
9987;DHT22;5033;46.310;11.214;2023-08-01T15:08:38;22.40;99.90
9987;DHT22;5033;46.310;11.214;2023-08-01T15:11:06;21.80;99.90
9987;DHT22;5033;46.310;11.214;2023-08-01T15:13:33;21.70;99.90
9987;DHT22;5033;46.310;11.214;2023-08-01T15:16:00;21.90;99.90
9987;DHT22;5033;46.310;11.214;2023-08-01T15:18:29;22.30;99.90
9987;DHT22;5033;46.310;11.214;2023-08-01T15:20:55;22.60;99.90
9987;DHT22;5033;46.310;11.214;2023-08-01T15:23:22;23.00;99.90
9987;DHT22;5033;46.310;11.214;2023-08-01T15:25:53;23.60;99.90
9987;DHT22;5033;46.310;11.214;2023-08-01T15:28:21;24.20;99.90
9987;DHT22;5033;46.310;11.214;2023-08-01T15:30:48;24.30;99.90
9987;DHT22;5033;46.310;11.214;2023-08-01T15:33:16;24.20;99.90
9987;DHT22;5033;46.310;11.214;2023-08-01T15:35:44;24.00;99.90
9987;DHT22;5033;46.310;11.214;2023-08-01T15:38:11;24.00;99.90
9987;DHT22;5033;46.310;11.214;2023-08-01T15:40:38;24.10;99.90
9987;DHT22;5033;46.310;11.214;2023-08-01T15:43:05;24.20;99.90
9987;DHT22;5033;46.310;11.214;2023-08-01T15:45:32;24.40;99.90
9987;DHT22;5033;46.310;11.214;2023-08-01T15:47:59;24.50;99.90